Hauptseite
METAR-TAF:

METAR-TAF

Flughäfen :

Mannheim, Deutschland

City-Airport Mannheim

Breite: 49-28-21N, Länge: 008-30-56E, Höhe: 100 m

Beobachtung

Neuester Wetterbericht von vor 12 Minuten, um 11:20 UTC
Wind 10 kt aus Nordost, variierte zwischen Nord und Ost
Temperatur 14°C
Luftfeuchtigkeit 44%
Luftdruck 1025 hPa
Sichtweite 10 km oder mehr
keine Wolken unter 1500 m und keine Kumulonimbus oder Gewitterwolken

METAR: EDFM 251120Z 05010KT 010V080 CAVOK 14/02 Q1025

Zeit: 12:32 (11:32 UTC)

Prognose

Neuester Wetterbericht von vor 18 Stunden und 32 Minuten, um 17:00 UTC
Gültige Prognose vom 24 um 18 UTC bis 24 um 21 UTC
Wind 9 kt aus Nord/Nordost
Sichtweite 10 km oder mehr
keine Wolken unter 1500 m und keine Kumulonimbus oder Gewitterwolken
Zeitweise
vom 24 um 18 UTC bis 24 um 21 UTC
Wind 4 kt aus Ost

TAF: EDFM 241700Z 2418/2421 03009KT CAVOK TEMPO 2418/2421 10004KT

Wetterbeobachtungen und Prognosen von mehr als 4000 Flughäfen (METAR und TAF Bericht).

Die verfügbaren Stationen werden durch gelbe und rote Markierungen auf der Karte dargestellt.

Führen Sie die Maus auf sie, um den Namen der Station zu sehen.

Darauf klicken, um die Beobachtung von Wetterbeobachtungen und Prognosen zu sehen.

Um die Karte zu ändern : klicken Sie auf den grünen Tasten mit einem schwarzen Kreuz Zum Vergrößern, auf den grünen Button mit einem Gedankenstrich zu verkleinern, oder auf die grünen Pfeile für benachbarte Karten.


METAR-TAF: